Time;durP1;ratioP1;P1;durP2;ratioP2;P2;SDS_P1;SDS_P2;PMS_P1;PMS_P2;Temp;Humidity;BMP_temperature;BMP_pressure;BME280_temperature;BME280_humidity;BME280_pressure;Samples;Min_cycle;Max_cycle;Signal;HPM_P1;HPM_P2
2023/04/20 00:00:09;;;;;;;14.35;8.32;;;;;;;;;;1028069;28;20019;-74
2023/04/20 00:00:41;;;;;;;15.23;6.00;;;;;;;;;;1023062;29;20402;-75
2023/04/20 00:01:12;;;;;;;17.88;6.28;;;;;;;;;;1023794;29;20075;-74
2023/04/20 00:01:43;;;;;;;8.93;5.72;;;;;;;;;;1023400;29;20027;-74
2023/04/20 00:02:14;;;;;;;14.98;7.13;;;;;;;;;;1024179;28;20066;-74
2023/04/20 00:02:44;;;;;;;23.17;5.88;;;;;;;;;;1028017;28;20453;-75
2023/04/20 00:03:19;;;;;;;15.70;6.88;;;;;;;;;;1027102;28;20023;-75
2023/04/20 00:03:50;;;;;;;12.02;5.72;;;;;;;;;;1023283;29;20027;-74
2023/04/20 00:04:21;;;;;;;16.25;5.10;;;;;;;;;;1023195;29;20027;-74
2023/04/20 00:04:51;;;;;;;12.25;5.55;;;;;;;;;;1023704;29;20027;-74
2023/04/20 00:05:22;;;;;;;15.52;8.55;;;;;;;;;;1023563;28;20465;-74
2023/04/20 00:05:53;;;;;;;16.08;8.57;;;;;;;;;;1028151;28;20034;-74
2023/04/20 00:06:28;;;;;;;12.88;4.80;;;;;;;;;;1028009;28;20612;-75
2023/04/20 00:06:58;;;;;;;20.08;7.45;;;;;;;;;;1027595;28;20069;-74
2023/04/20 00:07:30;;;;;;;11.98;7.38;;;;;;;;;;1027686;28;20096;-74
2023/04/20 00:08:01;;;;;;;10.27;7.68;;;;;;;;;;1027825;28;20132;-75
2023/04/20 00:08:31;;;;;;;14.57;5.72;;;;;;;;;;1027864;28;20050;-74
2023/04/20 00:09:03;;;;;;;21.08;6.75;;;;;;;;;;1027621;28;20030;-75
2023/04/20 00:09:33;;;;;;;13.95;6.95;;;;;;;;;;1023349;29;20421;-74
2023/04/20 00:10:04;;;;;;;10.88;5.65;;;;;;;;;;1023559;29;20023;-74
2023/04/20 00:10:35;;;;;;;5.32;4.40;;;;;;;;;;1023511;29;20820;-74
2023/04/20 00:11:05;;;;;;;15.32;8.43;;;;;;;;;;1027969;28;20471;-74
2023/04/20 00:11:36;;;;;;;12.45;7.15;;;;;;;;;;1031094;28;20033;-74
2023/04/20 00:12:06;;;;;;;16.42;8.30;;;;;;;;;;1028023;28;20026;-75
2023/04/20 00:12:37;;;;;;;13.23;5.55;;;;;;;;;;1027565;28;20054;-75
2023/04/20 00:13:07;;;;;;;8.55;6.95;;;;;;;;;;1023464;29;20019;-74
2023/04/20 00:13:38;;;;;;;10.68;5.45;;;;;;;;;;1023551;28;20092;-74
2023/04/20 00:14:08;;;;;;;15.48;6.97;;;;;;;;;;1027542;28;20050;-74
2023/04/20 00:14:39;;;;;;;13.05;7.60;;;;;;;;;;1027923;28;20054;-74
2023/04/20 00:15:09;;;;;;;17.48;9.15;;;;;;;;;;1027423;28;20430;-75
2023/04/20 00:15:40;;;;;;;12.55;7.72;;;;;;;;;;1023417;28;20396;-74
2023/04/20 00:16:10;;;;;;;18.10;7.00;;;;;;;;;;1024335;28;20031;-75
2023/04/20 00:16:41;;;;;;;12.23;5.78;;;;;;;;;;1023460;29;20123;-74
2023/04/20 00:17:11;;;;;;;12.82;6.97;;;;;;;;;;1023721;29;20487;-74
2023/04/20 00:17:43;;;;;;;24.25;7.78;;;;;;;;;;1023549;29;20476;-75
2023/04/20 00:18:13;;;;;;;17.40;6.25;;;;;;;;;;1024017;28;20029;-75
2023/04/20 00:18:47;;;;;;;18.20;7.72;;;;;;;;;;1027907;28;20153;-74
2023/04/20 00:19:18;;;;;;;10.43;5.07;;;;;;;;;;1023554;29;20106;-75
2023/04/20 00:19:48;;;;;;;7.63;6.50;;;;;;;;;;1023446;29;20064;-75
2023/04/20 00:20:19;;;;;;;11.90;7.18;;;;;;;;;;1023075;29;20439;-75
2023/04/20 00:20:49;;;;;;;9.63;4.32;;;;;;;;;;1023588;29;20027;-74
2023/04/20 00:21:22;;;;;;;12.00;5.65;;;;;;;;;;1023525;29;20097;-74
2023/04/20 00:21:53;;;;;;;14.88;7.75;;;;;;;;;;1022772;29;20020;-75
2023/04/20 00:22:25;;;;;;;13.10;6.65;;;;;;;;;;1019641;29;20492;-75
2023/04/20 00:22:55;;;;;;;16.65;7.30;;;;;;;;;;1020087;29;20020;-74
2023/04/20 00:23:26;;;;;;;13.07;5.53;;;;;;;;;;1019321;29;20446;-74
2023/04/20 00:23:56;;;;;;;13.13;6.05;;;;;;;;;;1024013;28;20062;-75
2023/04/20 00:24:27;;;;;;;14.57;5.60;;;;;;;;;;1023079;29;20114;-75
2023/04/20 00:24:57;;;;;;;20.17;6.57;;;;;;;;;;1023821;29;20418;-75
2023/04/20 00:25:29;;;;;;;8.55;6.13;;;;;;;;;;1021548;29;20055;-74
2023/04/20 00:25:59;;;;;;;13.82;8.85;;;;;;;;;;1021612;29;20106;-74
2023/04/20 00:26:30;;;;;;;13.55;5.60;;;;;;;;;;1023541;29;20027;-74
2023/04/20 00:27:00;;;;;;;13.07;6.22;;;;;;;;;;1023139;28;20531;-74
2023/04/20 00:27:31;;;;;;;13.82;8.73;;;;;;;;;;1022968;28;20019;-74
2023/04/20 00:28:02;;;;;;;23.40;7.68;;;;;;;;;;1027960;28;20113;-74
2023/04/20 00:28:32;;;;;;;21.67;6.30;;;;;;;;;;1027704;28;20106;-74
2023/04/20 00:29:02;;;;;;;30.50;5.65;;;;;;;;;;1028078;28;20120;-75
2023/04/20 00:29:33;;;;;;;15.43;9.45;;;;;;;;;;1028293;28;20124;-74
2023/04/20 00:30:04;;;;;;;9.70;6.40;;;;;;;;;;1027513;28;20047;-75
2023/04/20 00:30:34;;;;;;;6.43;3.42;;;;;;;;;;1027742;28;20117;-74
2023/04/20 00:31:05;;;;;;;9.70;5.80;;;;;;;;;;1027501;28;20467;-75
2023/04/20 00:31:35;;;;;;;18.00;8.27;;;;;;;;;;1022229;29;20034;-74
2023/04/20 00:32:06;;;;;;;15.25;7.93;;;;;;;;;;1023490;28;20496;-75
2023/04/20 00:32:36;;;;;;;9.25;6.97;;;;;;;;;;1023571;28;20042;-75
2023/04/20 00:33:07;;;;;;;15.15;8.30;;;;;;;;;;1023687;28;20039;-74
2023/04/20 00:33:37;;;;;;;13.65;7.85;;;;;;;;;;1027268;28;20275;-75
2023/04/20 00:34:08;;;;;;;11.75;5.63;;;;;;;;;;1027968;28;20034;-75
2023/04/20 00:34:38;;;;;;;9.15;6.57;;;;;;;;;;1023424;29;20027;-74
2023/04/20 00:35:09;;;;;;;10.20;4.57;;;;;;;;;;1022778;28;20031;-75
2023/04/20 00:35:39;;;;;;;20.05;8.10;;;;;;;;;;1020861;29;20023;-75
2023/04/20 00:36:10;;;;;;;23.08;8.52;;;;;;;;;;1024994;28;20022;-74
2023/04/20 00:36:40;;;;;;;20.95;6.78;;;;;;;;;;1026691;28;20026;-74
2023/04/20 00:37:11;;;;;;;12.20;7.00;;;;;;;;;;1027857;28;20485;-74
2023/04/20 00:37:41;;;;;;;12.35;6.90;;;;;;;;;;1031299;28;20062;-75
2023/04/20 00:38:11;;;;;;;4.70;4.07;;;;;;;;;;1027987;28;20022;-75
2023/04/20 00:38:42;;;;;;;10.38;6.47;;;;;;;;;;1023458;29;20059;-74
2023/04/20 00:39:12;;;;;;;11.27;6.22;;;;;;;;;;1023666;29;20031;-74
2023/04/20 00:39:43;;;;;;;10.43;6.30;;;;;;;;;;1023443;29;20015;-74
2023/04/20 00:40:13;;;;;;;23.50;6.93;;;;;;;;;;1023748;28;20657;-75
2023/04/20 00:40:47;;;;;;;6.88;5.28;;;;;;;;;;1027615;28;20030;-74
2023/04/20 00:41:18;;;;;;;9.85;6.93;;;;;;;;;;1027831;28;20425;-75
2023/04/20 00:41:48;;;;;;;14.60;7.70;;;;;;;;;;1027786;28;20022;-74
2023/04/20 00:42:19;;;;;;;10.00;6.68;;;;;;;;;;1028006;28;20402;-75
2023/04/20 00:42:49;;;;;;;9.65;4.68;;;;;;;;;;1027868;28;20108;-74
2023/04/20 00:43:20;;;;;;;18.45;8.27;;;;;;;;;;1027805;28;20042;-74
2023/04/20 00:43:51;;;;;;;8.50;7.28;;;;;;;;;;1027851;28;20014;-75
2023/04/20 00:44:22;;;;;;;10.48;5.82;;;;;;;;;;1023601;29;20097;-75
2023/04/20 00:44:52;;;;;;;10.52;6.95;;;;;;;;;;1023607;29;20031;-74
2023/04/20 00:45:23;;;;;;;20.27;7.97;;;;;;;;;;1023386;29;20019;-75
2023/04/20 00:45:53;;;;;;;10.38;5.40;;;;;;;;;;1023745;28;20023;-75
2023/04/20 00:46:24;;;;;;;17.40;6.00;;;;;;;;;;1022753;28;20479;-74
2023/04/20 00:46:56;;;;;;;16.85;6.03;;;;;;;;;;1023569;29;20458;-74
2023/04/20 00:47:26;;;;;;;9.55;6.20;;;;;;;;;;1023482;29;20097;-74
2023/04/20 00:47:57;;;;;;;16.60;7.80;;;;;;;;;;1022970;29;20463;-75
2023/04/20 00:48:27;;;;;;;9.98;8.32;;;;;;;;;;1022887;29;20371;-74
2023/04/20 00:48:58;;;;;;;6.43;5.47;;;;;;;;;;1023129;29;20530;-74
2023/04/20 00:49:29;;;;;;;13.68;6.68;;;;;;;;;;1022704;29;20046;-74
2023/04/20 00:50:00;;;;;;;10.32;6.13;;;;;;;;;;1023864;28;20066;-74
2023/04/20 00:50:31;;;;;;;11.75;4.30;;;;;;;;;;1027675;28;20435;-74
2023/04/20 00:51:01;;;;;;;10.43;6.10;;;;;;;;;;1023624;29;20018;-75
2023/04/20 00:51:33;;;;;;;15.75;9.05;;;;;;;;;;1023067;29;20058;-75
2023/04/20 00:52:03;;;;;;;13.07;6.93;;;;;;;;;;1023551;29;20103;-75
2023/04/20 00:52:34;;;;;;;14.35;7.22;;;;;;;;;;1023410;29;20024;-75
2023/04/20 00:53:05;;;;;;;17.95;7.90;;;;;;;;;;1023629;29;20118;-74
2023/04/20 00:53:36;;;;;;;17.45;8.18;;;;;;;;;;1023577;28;20031;-74
2023/04/20 00:54:06;;;;;;;17.02;5.97;;;;;;;;;;1027561;28;20511;-74
2023/04/20 00:54:37;;;;;;;11.68;7.60;;;;;;;;;;1022994;29;20099;-74
2023/04/20 00:55:08;;;;;;;13.38;5.60;;;;;;;;;;1023179;28;20023;-75
2023/04/20 00:55:40;;;;;;;17.83;5.65;;;;;;;;;;1022731;29;20055;-74
2023/04/20 00:56:12;;;;;;;43.10;6.80;;;;;;;;;;1023416;29;20027;-75
2023/04/20 00:56:43;;;;;;;10.63;5.70;;;;;;;;;;1023429;28;20027;-74
2023/04/20 00:57:13;;;;;;;10.68;7.28;;;;;;;;;;1024133;28;20140;-75
2023/04/20 00:57:43;;;;;;;16.33;8.48;;;;;;;;;;1023194;29;20135;-74
2023/04/20 00:58:14;;;;;;;11.50;6.28;;;;;;;;;;1021281;29;20026;-75
2023/04/20 00:58:45;;;;;;;11.00;4.18;;;;;;;;;;1019234;29;20036;-75
2023/04/20 00:59:15;;;;;;;10.45;6.93;;;;;;;;;;1019701;29;20111;-74
2023/04/20 00:59:46;;;;;;;9.57;4.75;;;;;;;;;;1021618;29;20032;-75
2023/04/20 01:00:16;;;;;;;7.90;6.03;;;;;;;;;;1023139;28;20027;-74
2023/04/20 01:00:47;;;;;;;11.45;6.93;;;;;;;;;;1027777;28;20081;-74
2023/04/20 01:01:17;;;;;;;10.38;5.22;;;;;;;;;;1027240;28;20023;-75
2023/04/20 01:01:48;;;;;;;13.60;7.18;;;;;;;;;;1023248;29;20118;-75
2023/04/20 01:02:18;;;;;;;8.52;6.38;;;;;;;;;;1023425;29;20511;-74
2023/04/20 01:02:49;;;;;;;15.85;7.63;;;;;;;;;;1023560;29;20031;-74
2023/04/20 01:03:20;;;;;;;9.23;5.65;;;;;;;;;;1023113;28;20391;-74
2023/04/20 01:03:50;;;;;;;14.07;6.40;;;;;;;;;;1027759;28;20037;-74
2023/04/20 01:04:21;;;;;;;14.73;8.95;;;;;;;;;;1026637;28;20081;-75
2023/04/20 01:04:51;;;;;;;12.38;7.57;;;;;;;;;;1027792;28;20482;-74
2023/04/20 01:05:22;;;;;;;12.05;7.43;;;;;;;;;;1023378;29;20114;-75
2023/04/20 01:05:52;;;;;;;10.23;6.93;;;;;;;;;;1021652;29;20555;-75
2023/04/20 01:06:23;;;;;;;9.07;4.57;;;;;;;;;;1021487;29;20065;-74
2023/04/20 01:06:53;;;;;;;12.43;8.55;;;;;;;;;;1021807;29;20074;-74
2023/04/20 01:07:24;;;;;;;11.18;6.18;;;;;;;;;;1023350;28;20027;-74
2023/04/20 01:07:54;;;;;;;10.60;6.50;;;;;;;;;;1027736;28;20022;-75
2023/04/20 01:08:26;;;;;;;10.32;6.32;;;;;;;;;;1023329;29;20071;-75
2023/04/20 01:08:56;;;;;;;15.32;7.25;;;;;;;;;;1023707;29;20031;-75
2023/04/20 01:09:27;;;;;;;10.13;4.95;;;;;;;;;;1023225;29;20019;-75
2023/04/20 01:09:58;;;;;;;16.63;8.00;;;;;;;;;;1023757;28;20035;-75
2023/04/20 01:10:29;;;;;;;10.88;5.75;;;;;;;;;;1022752;29;20555;-75
2023/04/20 01:10:59;;;;;;;12.68;6.63;;;;;;;;;;1021784;29;20135;-74
2023/04/20 01:11:30;;;;;;;10.52;5.65;;;;;;;;;;1021358;29;20023;-74
2023/04/20 01:12:01;;;;;;;18.38;6.50;;;;;;;;;;1021797;29;20401;-74
2023/04/20 01:12:31;;;;;;;14.07;5.60;;;;;;;;;;1022426;28;20034;-75
2023/04/20 01:13:02;;;;;;;11.02;5.07;;;;;;;;;;1027852;28;20085;-74
2023/04/20 01:13:33;;;;;;;21.00;6.50;;;;;;;;;;1027552;28;20029;-74
2023/04/20 01:14:03;;;;;;;7.57;5.45;;;;;;;;;;1023417;29;20033;-74
2023/04/20 01:14:34;;;;;;;7.75;4.35;;;;;;;;;;1023260;29;20027;-75
2023/04/20 01:15:05;;;;;;;17.70;7.07;;;;;;;;;;1023735;29;20027;-75
2023/04/20 01:15:35;;;;;;;16.55;7.75;;;;;;;;;;1019796;29;20019;-75
2023/04/20 01:16:06;;;;;;;9.90;6.50;;;;;;;;;;1023380;29;20367;-74
2023/04/20 01:16:37;;;;;;;9.45;6.82;;;;;;;;;;1021502;29;20502;-74
2023/04/20 01:17:08;;;;;;;8.32;6.35;;;;;;;;;;1022034;29;20031;-74
2023/04/20 01:17:39;;;;;;;17.35;7.68;;;;;;;;;;1019162;29;21251;-75
2023/04/20 01:18:10;;;;;;;8.90;5.43;;;;;;;;;;1019268;29;20077;-74
2023/04/20 01:18:42;;;;;;;8.68;6.03;;;;;;;;;;1021467;28;20050;-74
2023/04/20 01:19:13;;;;;;;10.20;6.85;;;;;;;;;;1023738;28;20019;-75
2023/04/20 01:19:44;;;;;;;13.32;7.72;;;;;;;;;;1023116;29;20050;-75
2023/04/20 01:20:15;;;;;;;12.70;6.40;;;;;;;;;;1021436;29;20433;-75
2023/04/20 01:20:48;;;;;;;10.88;7.63;;;;;;;;;;1019592;29;20074;-75
2023/04/20 01:21:21;;;;;;;12.25;7.68;;;;;;;;;;1019059;29;20032;-75
2023/04/20 01:21:51;;;;;;;8.98;4.80;;;;;;;;;;1021586;29;20023;-75
2023/04/20 01:22:22;;;;;;;9.98;6.18;;;;;;;;;;1019443;28;20145;-75
2023/04/20 01:22:55;;;;;;;13.85;6.63;;;;;;;;;;1022410;28;20054;-74
2023/04/20 01:23:25;;;;;;;14.27;6.80;;;;;;;;;;1022236;28;20101;-74
2023/04/20 01:23:56;;;;;;;12.10;6.10;;;;;;;;;;1025542;28;20076;-74
2023/04/20 01:24:26;;;;;;;9.70;5.68;;;;;;;;;;1025335;28;20113;-74
2023/04/20 01:24:57;;;;;;;15.13;8.18;;;;;;;;;;1026120;28;20509;-74
2023/04/20 01:25:27;;;;;;;14.38;7.40;;;;;;;;;;1024819;28;20039;-74
2023/04/20 01:25:58;;;;;;;15.27;6.60;;;;;;;;;;1025442;28;20027;-74
2023/04/20 01:26:28;;;;;;;8.57;6.28;;;;;;;;;;1025945;28;20133;-75
2023/04/20 01:27:00;;;;;;;16.60;8.02;;;;;;;;;;1025393;28;20114;-75
2023/04/20 01:27:30;;;;;;;11.13;5.60;;;;;;;;;;1018160;28;20130;-75
2023/04/20 01:28:01;;;;;;;9.27;4.00;;;;;;;;;;1017947;29;20499;-75
2023/04/20 01:28:31;;;;;;;6.05;4.57;;;;;;;;;;1017879;29;20607;-75
2023/04/20 01:29:02;;;;;;;10.93;6.45;;;;;;;;;;1020358;28;20029;-75
2023/04/20 01:29:33;;;;;;;15.15;7.07;;;;;;;;;;1023330;28;20214;-75
2023/04/20 01:30:04;;;;;;;9.55;6.85;;;;;;;;;;1023834;28;20054;-75
2023/04/20 01:30:36;;;;;;;16.58;8.57;;;;;;;;;;1021030;28;20022;-75
2023/04/20 01:31:07;;;;;;;19.23;7.28;;;;;;;;;;1017178;29;20029;-75
2023/04/20 01:31:38;;;;;;;13.07;7.95;;;;;;;;;;1017333;28;20166;-75
2023/04/20 01:32:08;;;;;;;15.15;8.35;;;;;;;;;;1019632;28;20557;-75
2023/04/20 01:32:39;;;;;;;9.48;6.15;;;;;;;;;;1020787;28;20507;-75
2023/04/20 01:33:10;;;;;;;14.27;8.52;;;;;;;;;;1025891;28;20814;-75
2023/04/20 01:33:40;;;;;;;20.08;7.90;;;;;;;;;;1025528;28;20045;-75
2023/04/20 01:34:11;;;;;;;12.80;6.30;;;;;;;;;;1025250;28;20035;-76
2023/04/20 01:34:41;;;;;;;16.38;8.73;;;;;;;;;;1024988;28;20093;-75
2023/04/20 01:35:22;;;;;;;;;;;;;;;;;;;;;
2023/04/20 01:35:54;;;;;;;17.35;9.13;;;;;;;;;;1024760;28;20035;-77
2023/04/20 01:36:25;;;;;;;17.60;9.50;;;;;;;;;;1027602;28;20134;-77
2023/04/20 01:36:56;;;;;;;18.67;9.50;;;;;;;;;;1028042;28;20025;-76
2023/04/20 01:37:27;;;;;;;15.73;6.50;;;;;;;;;;1025478;28;20486;-77
2023/04/20 01:38:01;;;;;;;25.17;10.73;;;;;;;;;;1024540;28;20038;-76
2023/04/20 01:38:33;;;;;;;46.42;9.27;;;;;;;;;;1019167;29;20023;-76
2023/04/20 01:39:04;;;;;;;12.32;8.20;;;;;;;;;;1017623;28;21614;-76
2023/04/20 01:39:38;;;;;;;12.57;8.57;;;;;;;;;;1020071;28;20069;-76
2023/04/20 01:40:10;;;;;;;35.30;8.65;;;;;;;;;;1018251;28;20110;-77
2023/04/20 01:40:41;;;;;;;20.23;7.93;;;;;;;;;;1020575;28;20114;-76
2023/04/20 01:41:12;;;;;;;25.98;10.15;;;;;;;;;;1021120;28;20031;-76
2023/04/20 01:41:42;;;;;;;10.25;6.13;;;;;;;;;;1020613;28;20121;-76
2023/04/20 01:42:13;;;;;;;21.60;9.80;;;;;;;;;;1025780;28;20027;-76
2023/04/20 01:42:43;;;;;;;27.98;14.35;;;;;;;;;;1026281;28;20360;-76
2023/04/20 01:43:14;;;;;;;36.40;12.02;;;;;;;;;;1024393;28;20085;-77
2023/04/20 01:43:45;;;;;;;27.95;12.98;;;;;;;;;;1024903;28;20305;-77
2023/04/20 01:44:15;;;;;;;14.35;7.82;;;;;;;;;;1025564;28;20035;-76
2023/04/20 01:44:46;;;;;;;25.70;11.25;;;;;;;;;;1026609;28;20030;-76
2023/04/20 01:45:16;;;;;;;9.38;7.47;;;;;;;;;;1020554;29;20038;-76
2023/04/20 01:45:48;;;;;;;23.98;11.45;;;;;;;;;;1020289;29;20050;-76
2023/04/20 01:46:19;;;;;;;33.88;10.18;;;;;;;;;;1020016;29;20137;-76
2023/04/20 01:46:49;;;;;;;25.08;10.88;;;;;;;;;;1021362;28;20511;-77
2023/04/20 01:47:20;;;;;;;30.63;11.73;;;;;;;;;;1024210;28;21683;-76
2023/04/20 01:47:50;;;;;;;26.30;11.98;;;;;;;;;;1025283;28;20501;-76
2023/04/20 01:48:21;;;;;;;15.05;10.55;;;;;;;;;;1026219;28;20037;-76
2023/04/20 01:48:52;;;;;;;14.00;9.88;;;;;;;;;;1024473;28;20117;-77
2023/04/20 01:49:22;;;;;;;22.38;9.93;;;;;;;;;;1021035;29;20027;-77
2023/04/20 01:49:53;;;;;;;18.35;10.60;;;;;;;;;;1021916;28;20039;-77
2023/04/20 01:50:23;;;;;;;20.95;11.38;;;;;;;;;;1018879;29;20078;-77
2023/04/20 01:50:54;;;;;;;19.83;10.60;;;;;;;;;;1019947;28;20042;-77
2023/04/20 01:51:28;;;;;;;22.98;10.77;;;;;;;;;;1024196;28;20093;-76
2023/04/20 01:51:58;;;;;;;22.23;11.20;;;;;;;;;;1022021;28;20778;-77
2023/04/20 01:52:29;;;;;;;20.25;10.90;;;;;;;;;;1028218;28;21557;-76
2023/04/20 01:53:00;;;;;;;17.45;8.38;;;;;;;;;;1025498;28;20019;-75
2023/04/20 01:53:30;;;;;;;20.42;9.98;;;;;;;;;;1025714;28;20026;-75
2023/04/20 01:54:01;;;;;;;21.23;11.68;;;;;;;;;;1024638;28;20019;-75
2023/04/20 01:54:32;;;;;;;20.05;10.73;;;;;;;;;;1022554;28;20641;-75
2023/04/20 01:55:03;;;;;;;22.30;11.48;;;;;;;;;;1024304;28;20157;-75
2023/04/20 01:55:33;;;;;;;15.85;8.77;;;;;;;;;;1019592;28;20031;-76
2023/04/20 01:56:04;;;;;;;24.65;11.38;;;;;;;;;;1020578;29;20200;-75
2023/04/20 01:56:34;;;;;;;28.13;10.55;;;;;;;;;;1019591;28;20067;-75
2023/04/20 01:57:05;;;;;;;24.67;10.75;;;;;;;;;;1025178;28;20406;-75
2023/04/20 01:57:37;;;;;;;23.83;8.35;;;;;;;;;;1024529;28;20026;-75
2023/04/20 01:58:07;;;;;;;29.23;9.60;;;;;;;;;;1024977;28;20568;-75
2023/04/20 01:58:38;;;;;;;21.42;8.77;;;;;;;;;;1022116;28;20027;-75
2023/04/20 01:59:08;;;;;;;17.98;9.23;;;;;;;;;;1016858;29;20094;-75
2023/04/20 01:59:39;;;;;;;13.77;8.35;;;;;;;;;;1022126;29;20418;-75
2023/04/20 02:00:10;;;;;;;24.50;10.18;;;;;;;;;;1020774;28;20820;-75
2023/04/20 02:00:41;;;;;;;16.50;8.55;;;;;;;;;;1025918;28;20027;-75
2023/04/20 02:01:11;;;;;;;19.33;6.88;;;;;;;;;;1023339;28;20031;-75
2023/04/20 02:01:42;;;;;;;15.13;7.32;;;;;;;;;;1021837;28;20031;-74
2023/04/20 02:02:12;;;;;;;19.52;8.68;;;;;;;;;;1020864;29;20616;-75
2023/04/20 02:02:43;;;;;;;12.25;7.90;;;;;;;;;;1020769;28;20570;-75
2023/04/20 02:03:13;;;;;;;17.73;8.68;;;;;;;;;;1017226;29;20482;-74
2023/04/20 02:03:44;;;;;;;23.50;10.38;;;;;;;;;;1021836;28;20032;-76
2023/04/20 02:04:14;;;;;;;16.63;7.13;;;;;;;;;;1020397;28;20566;-77
2023/04/20 02:04:45;;;;;;;15.48;7.72;;;;;;;;;;1016576;29;20035;-76
2023/04/20 02:05:15;;;;;;;47.58;9.48;;;;;;;;;;1016433;29;20027;-76
2023/04/20 02:05:46;;;;;;;17.75;8.35;;;;;;;;;;1017400;29;20396;-76
2023/04/20 02:06:16;;;;;;;28.42;9.77;;;;;;;;;;1015933;29;20472;-76
2023/04/20 02:06:47;;;;;;;12.43;8.15;;;;;;;;;;1023979;28;20031;-76
2023/04/20 02:07:17;;;;;;;10.93;8.15;;;;;;;;;;1028394;28;20026;-76
2023/04/20 02:07:48;;;;;;;21.48;7.68;;;;;;;;;;1029455;28;20466;-76
2023/04/20 02:08:19;;;;;;;29.20;10.75;;;;;;;;;;1028049;28;20351;-76
2023/04/20 02:08:49;;;;;;;21.45;8.63;;;;;;;;;;1021451;29;20126;-75
2023/04/20 02:09:20;;;;;;;16.67;8.73;;;;;;;;;;1021275;29;20028;-77
2023/04/20 02:09:50;;;;;;;21.05;7.97;;;;;;;;;;1021959;29;20035;-76
2023/04/20 02:10:21;;;;;;;18.65;9.82;;;;;;;;;;1021258;28;20027;-76
2023/04/20 02:10:51;;;;;;;27.30;7.82;;;;;;;;;;1025827;28;20034;-77
2023/04/20 02:11:22;;;;;;;18.02;9.00;;;;;;;;;;1020606;28;20117;-76
2023/04/20 02:11:53;;;;;;;19.20;8.80;;;;;;;;;;1021299;28;20042;-76
2023/04/20 02:12:23;;;;;;;19.25;8.00;;;;;;;;;;1017320;29;20760;-76
2023/04/20 02:12:54;;;;;;;20.67;10.25;;;;;;;;;;1017867;29;20484;-75
2023/04/20 02:13:25;;;;;;;25.30;10.40;;;;;;;;;;1021945;28;20031;-76
2023/04/20 02:13:56;;;;;;;15.52;9.13;;;;;;;;;;1021560;28;20069;-75
2023/04/20 02:14:26;;;;;;;15.30;8.60;;;;;;;;;;1020022;28;20036;-76
2023/04/20 02:14:57;;;;;;;28.08;10.55;;;;;;;;;;1016561;29;20125;-76
2023/04/20 02:15:28;;;;;;;23.35;11.15;;;;;;;;;;1016243;29;20531;-76
2023/04/20 02:15:58;;;;;;;34.92;10.38;;;;;;;;;;1016725;29;20032;-76
2023/04/20 02:16:29;;;;;;;18.25;7.95;;;;;;;;;;1021247;28;20446;-75
2023/04/20 02:16:59;;;;;;;20.90;8.63;;;;;;;;;;1025683;28;20126;-77
2023/04/20 02:17:31;;;;;;;20.83;9.43;;;;;;;;;;1021584;29;20728;-75
2023/04/20 02:18:02;;;;;;;24.98;10.27;;;;;;;;;;1016388;29;20031;-76
2023/04/20 02:18:33;;;;;;;19.65;7.20;;;;;;;;;;1018209;29;20496;-76
2023/04/20 02:19:03;;;;;;;11.52;7.22;;;;;;;;;;1017074;29;20432;-76
2023/04/20 02:19:35;;;;;;;14.90;8.40;;;;;;;;;;1018093;29;20091;-76
2023/04/20 02:20:06;;;;;;;18.92;9.18;;;;;;;;;;1021329;28;20034;-76
2023/04/20 02:20:36;;;;;;;15.23;8.52;;;;;;;;;;1025650;28;20058;-76
2023/04/20 02:21:07;;;;;;;17.45;7.63;;;;;;;;;;1021612;28;20070;-76
2023/04/20 02:21:37;;;;;;;10.65;5.05;;;;;;;;;;1025708;28;20462;-76
2023/04/20 02:22:08;;;;;;;16.88;8.10;;;;;;;;;;1024102;28;20434;-76
2023/04/20 02:22:38;;;;;;;15.23;7.10;;;;;;;;;;1020783;28;20129;-76
2023/04/20 02:23:09;;;;;;;21.70;7.88;;;;;;;;;;1020451;28;20075;-76
2023/04/20 02:23:40;;;;;;;15.68;6.72;;;;;;;;;;1025379;28;20130;-76
2023/04/20 02:24:10;;;;;;;17.33;8.88;;;;;;;;;;1024592;28;20031;-76
2023/04/20 02:24:42;;;;;;;32.22;10.13;;;;;;;;;;1020657;29;20027;-76
2023/04/20 02:25:13;;;;;;;16.70;9.20;;;;;;;;;;1023223;28;20027;-76
2023/04/20 02:25:43;;;;;;;12.23;7.60;;;;;;;;;;1021426;28;20054;-75
2023/04/20 02:26:17;;;;;;;11.00;6.88;;;;;;;;;;1021071;28;20035;-76
2023/04/20 02:26:47;;;;;;;17.40;7.00;;;;;;;;;;1026283;28;20142;-76
2023/04/20 02:27:18;;;;;;;8.75;6.55;;;;;;;;;;1021118;28;20122;-77
2023/04/20 02:27:48;;;;;;;12.98;6.15;;;;;;;;;;1022171;29;20510;-75
2023/04/20 02:28:19;;;;;;;21.23;7.95;;;;;;;;;;1015348;29;20535;-76
2023/04/20 02:28:50;;;;;;;9.07;5.90;;;;;;;;;;1017842;29;20024;-77
2023/04/20 02:29:20;;;;;;;21.55;7.68;;;;;;;;;;1018555;28;20086;-75
2023/04/20 02:29:51;;;;;;;25.77;8.18;;;;;;;;;;1020290;28;20061;-76
2023/04/20 02:30:21;;;;;;;18.52;8.90;;;;;;;;;;1027490;28;20030;-76
2023/04/20 02:30:52;;;;;;;14.85;8.23;;;;;;;;;;1024991;28;20030;-76
2023/04/20 02:31:22;;;;;;;15.75;8.15;;;;;;;;;;1023076;28;20027;-75
2023/04/20 02:31:53;;;;;;;20.80;9.02;;;;;;;;;;1018982;28;20027;-76
2023/04/20 02:32:23;;;;;;;12.60;6.82;;;;;;;;;;1016925;29;20039;-75
2023/04/20 02:32:54;;;;;;;15.25;7.72;;;;;;;;;;1017804;29;20054;-76
2023/04/20 02:33:24;;;;;;;16.52;8.65;;;;;;;;;;1017859;29;20073;-75
2023/04/20 02:33:54;;;;;;;23.77;9.27;;;;;;;;;;1021420;28;20039;-76
2023/04/20 02:34:25;;;;;;;10.85;5.25;;;;;;;;;;1024824;28;20022;-76
2023/04/20 02:34:55;;;;;;;16.30;7.65;;;;;;;;;;1024078;28;20061;-76
2023/04/20 02:35:26;;;;;;;9.68;6.28;;;;;;;;;;1023446;28;20030;-78
2023/04/20 02:35:57;;;;;;;10.63;5.40;;;;;;;;;;1021212;29;20613;-76
2023/04/20 02:36:27;;;;;;;12.20;5.35;;;;;;;;;;1018105;28;20429;-75
2023/04/20 02:36:58;;;;;;;11.93;5.97;;;;;;;;;;1020536;29;20109;-75
2023/04/20 02:37:29;;;;;;;15.40;6.60;;;;;;;;;;1019935;29;20126;-75
2023/04/20 02:38:01;;;;;;;17.27;7.13;;;;;;;;;;1018972;28;20027;-75
2023/04/20 02:38:32;;;;;;;23.08;5.85;;;;;;;;;;1021789;28;20551;-75
2023/04/20 02:39:02;;;;;;;12.45;6.78;;;;;;;;;;1020413;28;20031;-75
2023/04/20 02:39:33;;;;;;;8.48;5.07;;;;;;;;;;1020153;28;20023;-74
2023/04/20 02:40:03;;;;;;;15.85;4.10;;;;;;;;;;1024182;28;20030;-75
2023/04/20 02:40:34;;;;;;;17.70;9.13;;;;;;;;;;1025941;28;20501;-75
2023/04/20 02:41:04;;;;;;;13.20;6.35;;;;;;;;;;1017223;28;20518;-76
2023/04/20 02:41:35;;;;;;;18.55;8.20;;;;;;;;;;1015627;29;20087;-75
2023/04/20 02:42:06;;;;;;;15.85;8.50;;;;;;;;;;1013089;29;20012;-76
2023/04/20 02:42:37;;;;;;;22.45;7.65;;;;;;;;;;1017559;29;20118;-76
2023/04/20 02:43:07;;;;;;;15.93;7.43;;;;;;;;;;1019614;28;20082;-76
2023/04/20 02:43:39;;;;;;;19.02;5.25;;;;;;;;;;1024957;28;20449;-78
2023/04/20 02:44:09;;;;;;;13.52;8.20;;;;;;;;;;1020422;28;20481;-76
2023/04/20 02:44:40;;;;;;;19.13;9.02;;;;;;;;;;1020450;28;20077;-76
2023/04/20 02:45:11;;;;;;;19.50;8.52;;;;;;;;;;1019905;28;20038;-76
2023/04/20 02:45:41;;;;;;;18.38;8.23;;;;;;;;;;1018034;29;20216;-76
2023/04/20 02:46:12;;;;;;;15.77;6.22;;;;;;;;;;1018165;28;20031;-77
2023/04/20 02:46:42;;;;;;;14.18;8.50;;;;;;;;;;1016624;29;20023;-76
2023/04/20 02:47:13;;;;;;;6.45;5.13;;;;;;;;;;1018333;28;20019;-75
2023/04/20 02:47:43;;;;;;;21.85;7.63;;;;;;;;;;1023129;28;20035;-75
2023/04/20 02:48:14;;;;;;;32.42;6.68;;;;;;;;;;1021344;28;20034;-76
2023/04/20 02:48:47;;;;;;;13.52;6.13;;;;;;;;;;1021718;28;20031;-76
2023/04/20 02:49:18;;;;;;;13.82;6.65;;;;;;;;;;1022819;28;20483;-76
2023/04/20 02:49:50;;;;;;;16.42;6.68;;;;;;;;;;1026144;28;20149;-75
2023/04/20 02:50:21;;;;;;;8.40;4.18;;;;;;;;;;1020129;28;20123;-75
2023/04/20 02:50:57;;;;;;;21.13;9.88;;;;;;;;;;1020034;28;20502;-76
2023/04/20 02:51:28;;;;;;;16.10;5.85;;;;;;;;;;1014211;28;20032;-77
2023/04/20 02:51:59;;;;;;;11.20;5.95;;;;;;;;;;1019562;28;20681;-75
2023/04/20 02:52:30;;;;;;;11.30;5.93;;;;;;;;;;1020670;29;20042;-75
2023/04/20 02:53:01;;;;;;;18.70;8.27;;;;;;;;;;1014684;29;20052;-76
2023/04/20 02:53:32;;;;;;;25.02;8.15;;;;;;;;;;1014673;29;20635;-75
2023/04/20 02:54:03;;;;;;;11.35;5.90;;;;;;;;;;1016884;29;20051;-75
2023/04/20 02:54:35;;;;;;;24.60;7.82;;;;;;;;;;1024331;28;20114;-75
2023/04/20 02:55:10;;;;;;;10.35;5.13;;;;;;;;;;1021138;28;20027;-76
2023/04/20 02:55:41;;;;;;;25.67;9.20;;;;;;;;;;1024029;28;20107;-76
2023/04/20 02:56:12;;;;;;;13.90;8.05;;;;;;;;;;1017647;29;20114;-75
2023/04/20 02:56:42;;;;;;;9.70;4.85;;;;;;;;;;1019153;29;20019;-76
2023/04/20 02:57:13;;;;;;;16.92;7.20;;;;;;;;;;1022239;28;20023;-78
2023/04/20 02:57:45;;;;;;;20.88;7.97;;;;;;;;;;1018902;29;20032;-76
2023/04/20 02:58:16;;;;;;;39.88;8.30;;;;;;;;;;1021939;28;20536;-77
2023/04/20 02:58:50;;;;;;;14.43;7.18;;;;;;;;;;1022317;28;20145;-76
2023/04/20 02:59:23;;;;;;;16.38;6.63;;;;;;;;;;1019774;28;20036;-78
2023/04/20 02:59:54;;;;;;;15.80;7.47;;;;;;;;;;1018480;28;20022;-75
2023/04/20 03:00:25;;;;;;;17.92;7.38;;;;;;;;;;1017078;29;20031;-76
2023/04/20 03:01:06;;;;;;;20.25;8.15;;;;;;;;;;1018312;29;20126;-76
2023/04/20 03:01:37;;;;;;;15.98;7.00;;;;;;;;;;1021435;28;20058;-76
2023/04/20 03:02:08;;;;;;;16.30;8.40;;;;;;;;;;1022241;28;20055;-75
2023/04/20 03:02:40;;;;;;;19.77;8.30;;;;;;;;;;1022036;29;21349;-75